createdAt,value
2023-02-24T00:01:18.771Z,17.10
2023-02-24T05:00:41.499Z,24.27
2023-02-24T05:04:44.520Z,23.50
2023-02-24T05:08:47.347Z,23.30
2023-02-24T05:12:50.429Z,22.33
2023-02-24T05:17:00.096Z,23.47
2023-02-24T05:21:24.379Z,24.00
2023-02-24T05:25:27.347Z,24.27
2023-02-24T05:29:32.072Z,22.67
2023-02-24T05:33:37.660Z,24.27
2023-02-24T05:37:42.443Z,24.23
2023-02-24T05:41:54.562Z,24.07
2023-02-24T05:45:57.428Z,24.37
2023-02-24T05:50:09.147Z,24.50
2023-02-24T05:54:14.810Z,24.90
2023-02-24T05:58:20.467Z,25.07
2023-02-24T06:02:27.685Z,25.07
2023-02-24T06:06:35.002Z,25.13
2023-02-24T06:10:37.644Z,25.10
2023-02-24T06:14:42.283Z,25.27
2023-02-24T06:18:45.439Z,25.40
2023-02-24T06:22:54.164Z,25.77
2023-02-24T06:27:02.455Z,25.67
2023-02-24T06:31:06.781Z,24.77
2023-02-24T06:35:10.414Z,25.90
2023-02-24T06:39:14.805Z,25.17
2023-02-24T06:43:17.519Z,25.87
2023-02-24T06:47:22.643Z,26.20
2023-02-24T06:51:30.068Z,27.20
2023-02-24T06:55:35.549Z,25.47
2023-02-24T06:59:38.333Z,25.60
2023-02-24T07:03:47.241Z,26.13
2023-02-24T07:07:51.224Z,25.90
2023-02-24T07:12:01.523Z,25.33
2023-02-24T07:16:07.443Z,24.83
2023-02-24T07:20:25.110Z,24.00
2023-02-24T07:24:32.985Z,25.43
2023-02-24T07:28:39.913Z,26.37
2023-02-24T07:32:42.602Z,26.47
2023-02-24T07:36:50.129Z,26.20
2023-02-24T07:40:52.787Z,26.57
2023-02-24T07:44:57.120Z,25.03
2023-02-24T07:49:00.146Z,27.03
2023-02-24T07:53:05.652Z,25.63
2023-02-24T07:57:13.553Z,27.73
2023-02-24T08:01:22.980Z,26.70
2023-02-24T08:05:26.540Z,26.87
2023-02-24T08:09:53.604Z,25.17
2023-02-24T08:13:59.175Z,25.33
2023-02-24T08:18:03.416Z,24.90
2023-02-24T08:22:19.370Z,25.50
2023-02-24T08:26:30.680Z,23.10
2023-02-24T08:30:39.427Z,23.87
2023-02-24T08:34:44.309Z,23.07
2023-02-24T08:38:51.945Z,24.00
2023-02-24T08:42:54.695Z,24.23
2023-02-24T08:47:00.621Z,24.57
2023-02-24T08:51:15.089Z,24.10
2023-02-24T08:55:23.109Z,23.53
2023-02-24T08:59:37.669Z,24.17
2023-02-24T09:03:46.056Z,24.07
2023-02-24T09:07:54.710Z,23.43
2023-02-24T09:11:59.516Z,21.93
2023-02-24T09:16:02.639Z,22.67
2023-02-24T09:20:49.039Z,22.50
2023-02-24T09:25:13.045Z,21.40
2023-02-24T09:29:30.138Z,23.03
2023-02-24T09:33:38.724Z,22.67
2023-02-24T09:37:41.612Z,24.20
2023-02-24T09:41:57.569Z,23.03
2023-02-24T09:46:14.449Z,22.87
2023-02-24T09:50:59.099Z,22.23
2023-02-24T09:55:11.386Z,22.53
2023-02-24T09:59:26.082Z,11.50
2023-02-24T10:03:43.584Z,18.63
2023-02-24T10:07:47.543Z,19.57
2023-02-24T10:11:55.215Z,19.33
2023-02-24T10:16:06.882Z,21.83
2023-02-24T10:20:28.591Z,21.43
2023-02-24T10:24:35.839Z,20.80
2023-02-24T10:28:46.029Z,20.77
2023-02-24T10:32:58.211Z,18.27
2023-02-24T10:37:07.767Z,17.80
2023-02-24T10:41:11.544Z,16.27
2023-02-24T10:45:18.281Z,14.63
2023-02-24T10:49:24.788Z,15.43
2023-02-24T10:53:34.747Z,14.97
2023-02-24T10:57:58.114Z,16.37
2023-02-24T11:02:06.756Z,15.13
2023-02-24T11:06:42.285Z,13.70
2023-02-24T11:10:58.670Z,12.80
2023-02-24T11:15:21.991Z,12.73
2023-02-24T11:19:29.745Z,11.70
2023-02-24T11:23:36.067Z,12.87
2023-02-24T11:27:42.042Z,12.53
2023-02-24T11:31:56.685Z,11.47
2023-02-24T11:36:05.851Z,11.93
2023-02-24T11:40:16.254Z,11.00
2023-02-24T11:44:23.349Z,12.23
2023-02-24T11:48:29.450Z,11.93
2023-02-24T11:52:34.644Z,11.60
2023-02-24T11:56:44.078Z,12.40
2023-02-24T12:00:53.800Z,12.97
2023-02-24T12:05:01.091Z,11.43
2023-02-24T12:09:10.281Z,10.83
2023-02-24T12:13:19.581Z,10.70
2023-02-24T12:17:29.336Z,9.90
2023-02-24T12:21:35.833Z,10.17
2023-02-24T12:25:58.897Z,10.37
2023-02-24T12:30:34.007Z,9.50
2023-02-24T12:34:43.412Z,11.07
2023-02-24T12:38:53.864Z,10.73
2023-02-24T12:43:04.345Z,10.50
2023-02-24T12:47:12.994Z,11.03
2023-02-24T12:51:21.799Z,11.40
2023-02-24T12:55:30.228Z,10.70
2023-02-24T12:59:38.007Z,10.07
2023-02-24T13:04:05.341Z,9.67
2023-02-24T13:08:19.873Z,9.43
2023-02-24T13:12:28.120Z,10.13
2023-02-24T13:16:32.622Z,9.73
2023-02-24T13:20:38.047Z,9.60
2023-02-24T13:24:43.282Z,9.57
2023-02-24T13:28:45.944Z,10.00
2023-02-24T13:33:03.545Z,10.63
2023-02-24T13:37:10.137Z,9.13
2023-02-24T13:41:37.885Z,10.67
2023-02-24T13:45:42.141Z,10.63
2023-02-24T13:49:52.079Z,11.13
2023-02-24T13:54:09.051Z,9.77
2023-02-24T13:58:28.184Z,11.07
2023-02-24T14:02:32.013Z,10.17
2023-02-24T14:06:35.197Z,10.83
2023-02-24T14:10:45.359Z,11.03
2023-02-24T14:14:48.927Z,10.47
2023-02-24T14:18:56.088Z,10.67
2023-02-24T14:23:00.222Z,10.10
2023-02-24T14:27:05.790Z,10.50
2023-02-24T14:31:10.360Z,11.43
2023-02-24T14:35:20.823Z,12.77
2023-02-24T14:39:24.762Z,11.73
2023-02-24T14:43:29.793Z,10.80
2023-02-24T14:47:34.963Z,10.40
2023-02-24T14:51:38.018Z,10.53
2023-02-24T14:55:43.206Z,9.93
2023-02-24T14:59:50.295Z,10.60
2023-02-24T15:03:55.742Z,10.13
2023-02-24T15:07:59.472Z,10.47
2023-02-24T15:12:12.477Z,9.80
2023-02-24T15:16:21.742Z,10.83
2023-02-24T15:20:33.500Z,10.07
2023-02-24T15:24:36.364Z,10.73
2023-02-24T15:28:39.586Z,11.70
2023-02-24T15:32:44.029Z,11.50
2023-02-24T15:36:47.472Z,10.33
2023-02-24T15:40:52.971Z,10.73
2023-02-24T15:44:57.169Z,11.40
2023-02-24T15:49:05.377Z,11.20
2023-02-24T15:53:12.798Z,17.63
2023-02-24T15:57:17.471Z,13.90
2023-02-24T16:01:20.407Z,15.00
2023-02-24T16:05:24.880Z,14.70
2023-02-24T16:09:33.486Z,11.63
2023-02-24T16:13:36.233Z,12.03
2023-02-24T16:17:41.036Z,11.00
2023-02-24T16:21:46.359Z,11.70
2023-02-24T16:25:51.203Z,11.80
2023-02-24T16:29:54.461Z,12.13
2023-02-24T16:33:58.439Z,11.63
2023-02-24T16:38:02.609Z,12.23
2023-02-24T16:42:06.230Z,11.23
2023-02-24T16:46:15.636Z,11.50
2023-02-24T16:50:21.469Z,11.70
2023-02-24T16:54:29.327Z,11.10
2023-02-24T16:58:32.400Z,11.30
2023-02-24T17:02:35.236Z,10.73
2023-02-24T17:06:38.278Z,11.53
2023-02-24T17:10:43.595Z,11.03
2023-02-24T17:14:46.396Z,11.00
2023-02-24T17:18:49.189Z,11.00
2023-02-24T17:22:51.985Z,10.47
2023-02-24T17:26:58.687Z,10.07
2023-02-24T17:31:01.657Z,11.17
2023-02-24T17:35:04.862Z,11.90
2023-02-24T17:39:07.566Z,10.70
2023-02-24T17:43:11.960Z,10.47
2023-02-24T17:47:14.743Z,11.50
2023-02-24T17:51:19.396Z,11.13
2023-02-24T17:55:22.426Z,11.17
2023-02-24T17:59:26.525Z,11.17
2023-02-24T18:03:29.753Z,11.10
2023-02-24T18:07:32.532Z,11.83
2023-02-24T18:11:37.269Z,11.80
2023-02-24T18:15:41.377Z,11.33
2023-02-24T18:19:44.071Z,11.23
2023-02-24T18:23:49.121Z,10.60
2023-02-24T18:27:52.031Z,10.40
2023-02-24T18:31:56.325Z,9.50
2023-02-24T18:35:59.728Z,10.53
2023-02-24T18:40:03.984Z,10.57
2023-02-24T18:44:06.830Z,11.27
2023-02-24T18:48:12.518Z,10.27
2023-02-24T18:52:15.279Z,11.70
2023-02-24T18:56:21.272Z,8.77
2023-02-24T19:00:27.193Z,10.33
2023-02-24T19:04:31.836Z,11.82
2023-02-24T19:08:34.509Z,9.97
2023-02-24T19:12:40.152Z,9.20
2023-02-24T19:16:45.360Z,7.93
2023-02-24T19:20:49.450Z,8.00
2023-02-24T19:24:52.229Z,7.50
2023-02-24T19:28:55.385Z,7.30
2023-02-24T19:32:58.759Z,6.70
2023-02-24T19:37:03.075Z,4.83
2023-02-24T19:41:06.145Z,4.90
2023-02-24T19:45:13.354Z,4.43
2023-02-24T19:49:16.036Z,4.70
2023-02-24T19:53:20.272Z,4.50
2023-02-24T19:57:22.980Z,3.90
2023-02-24T20:01:27.922Z,4.00
2023-02-24T20:05:30.611Z,3.43
2023-02-24T20:09:34.752Z,3.77
2023-02-24T20:13:37.776Z,3.47
2023-02-24T20:17:40.495Z,4.20
2023-02-24T20:21:43.395Z,3.80
2023-02-24T20:25:52.692Z,4.67
2023-02-24T20:29:57.065Z,3.63
2023-02-24T20:34:00.111Z,3.47
2023-02-24T20:38:02.852Z,2.70
2023-02-24T20:42:07.226Z,2.50
2023-02-24T20:46:14.063Z,2.77
2023-02-24T20:50:21.690Z,2.43
2023-02-24T20:54:26.464Z,2.30
2023-02-24T20:58:31.059Z,2.43
2023-02-24T21:02:34.038Z,2.37
2023-02-24T21:06:37.770Z,2.63
2023-02-24T21:10:44.863Z,2.77
2023-02-24T21:14:49.155Z,2.30
2023-02-24T21:18:53.208Z,2.20
2023-02-24T21:22:56.028Z,2.43
2023-02-24T21:26:58.791Z,2.30
2023-02-24T21:31:08.068Z,2.40
2023-02-24T21:35:10.913Z,2.20
2023-02-24T21:39:14.831Z,2.17
2023-02-24T21:43:17.929Z,2.17
2023-02-24T21:47:22.090Z,2.23
2023-02-24T21:51:25.840Z,2.57
2023-02-24T21:55:30.541Z,2.77
2023-02-24T21:59:33.515Z,2.67
2023-02-24T22:03:37.677Z,2.30
2023-02-24T22:07:40.569Z,2.40
2023-02-24T22:11:43.498Z,2.67
2023-02-24T22:15:46.215Z,2.33
2023-02-24T22:19:50.282Z,2.30
2023-02-24T22:23:54.647Z,2.50
2023-02-24T22:27:57.350Z,2.67
2023-02-24T22:32:00.234Z,2.80
2023-02-24T22:36:07.810Z,2.80
2023-02-24T22:40:11.528Z,3.20
2023-02-24T22:44:14.380Z,3.07
2023-02-24T22:48:17.159Z,3.20
2023-02-24T22:52:21.514Z,2.83
2023-02-24T22:56:26.591Z,3.13
2023-02-24T23:00:29.967Z,3.33
2023-02-24T23:04:34.276Z,3.80
2023-02-24T23:08:39.555Z,4.57
2023-02-24T23:12:42.537Z,4.47
2023-02-24T23:16:48.331Z,4.90
2023-02-24T23:21:00.769Z,4.53
2023-02-24T23:25:05.169Z,4.73
2023-02-24T23:29:10.211Z,5.17
2023-02-24T23:33:13.345Z,5.43
2023-02-24T23:37:16.697Z,6.27
2023-02-24T23:41:20.852Z,5.50
2023-02-24T23:45:24.879Z,5.73
2023-02-24T23:49:36.266Z,6.10
2023-02-24T23:53:46.610Z,6.00
2023-02-24T23:57:50.892Z,5.47
